createdAt,value
2023-04-21T00:01:34.636Z,6.46
2023-04-21T00:04:00.952Z,6.47
2023-04-21T00:06:27.287Z,6.51
2023-04-21T00:08:53.501Z,6.41
2023-04-21T00:11:19.709Z,6.43
2023-04-21T00:13:45.924Z,6.30
2023-04-21T00:16:12.192Z,6.38
2023-04-21T00:18:38.450Z,6.31
2023-04-21T00:21:04.737Z,6.49
2023-04-21T00:23:30.979Z,6.40
2023-04-21T00:25:57.207Z,6.48
2023-04-21T00:28:23.423Z,6.42
2023-04-21T00:30:49.616Z,6.40
2023-04-21T00:33:15.843Z,6.40
2023-04-21T00:35:42.064Z,6.41
2023-04-21T00:38:08.276Z,6.43
2023-04-21T00:40:34.469Z,6.35
2023-04-21T00:43:00.690Z,6.30
2023-04-21T00:45:26.902Z,6.29
2023-04-21T00:47:53.182Z,6.31
2023-04-21T00:50:19.407Z,6.29
2023-04-21T00:52:45.624Z,6.31
2023-04-21T00:55:11.827Z,6.22
2023-04-21T00:57:38.050Z,6.37
2023-04-21T01:00:04.623Z,6.41
2023-04-21T01:02:30.988Z,6.39
2023-04-21T01:04:57.243Z,6.37
2023-04-21T01:07:24.326Z,6.34
2023-04-21T01:09:50.531Z,6.46
2023-04-21T01:12:16.724Z,6.42
2023-04-21T01:14:42.934Z,6.41
2023-04-21T01:17:09.126Z,6.46
2023-04-21T01:19:36.148Z,6.45
2023-04-21T01:22:02.894Z,6.51
2023-04-21T01:24:35.849Z,6.49
2023-04-21T01:27:02.046Z,6.41
2023-04-21T01:29:28.247Z,6.31
2023-04-21T01:31:54.489Z,6.32
2023-04-21T01:34:20.727Z,6.34
2023-04-21T01:36:46.931Z,6.29
2023-04-21T01:39:13.148Z,6.33
2023-04-21T01:41:39.349Z,6.41
2023-04-21T01:44:05.565Z,6.48
2023-04-21T01:46:31.811Z,6.43
2023-04-21T01:48:58.077Z,6.48
2023-04-21T01:51:24.269Z,6.53
2023-04-21T01:53:50.489Z,6.55
2023-04-21T01:56:16.680Z,6.53
2023-04-21T01:58:42.915Z,6.52
2023-04-21T02:01:09.137Z,6.53
2023-04-21T02:03:35.963Z,6.52
2023-04-21T02:06:02.225Z,6.48
2023-04-21T02:08:28.442Z,6.51
2023-04-21T02:10:54.658Z,6.42
2023-04-21T02:13:20.856Z,6.35
2023-04-21T02:15:47.121Z,6.33
2023-04-21T02:18:13.433Z,6.43
2023-04-21T02:20:39.691Z,6.43
2023-04-21T02:23:05.903Z,6.47
2023-04-21T02:25:32.150Z,6.47
2023-04-21T02:27:58.355Z,6.39
2023-04-21T02:30:24.557Z,6.41
2023-04-21T02:32:50.787Z,6.36
2023-04-21T02:35:17.099Z,6.29
2023-04-21T02:37:43.300Z,6.18
2023-04-21T02:40:10.174Z,6.15
2023-04-21T02:42:36.383Z,5.98
2023-04-21T02:45:02.615Z,5.88
2023-04-21T02:47:28.879Z,5.91
2023-04-21T02:49:55.112Z,5.94
2023-04-21T02:52:21.311Z,6.06
2023-04-21T02:54:47.532Z,6.04
2023-04-21T02:57:13.735Z,6.07
2023-04-21T02:59:39.956Z,6.15
2023-04-21T03:02:06.193Z,6.20
2023-04-21T03:04:32.686Z,6.22
2023-04-21T03:06:59.096Z,6.21
2023-04-21T03:09:25.298Z,6.09
2023-04-21T03:11:51.495Z,6.05
2023-04-21T03:14:17.715Z,6.05
2023-04-21T03:16:43.971Z,5.83
2023-04-21T03:19:10.214Z,5.94
2023-04-21T03:21:36.945Z,5.85
2023-04-21T03:24:03.201Z,5.78
2023-04-21T03:26:29.405Z,5.67
2023-04-21T03:28:55.618Z,5.57
2023-04-21T03:31:21.841Z,5.53
2023-04-21T03:33:48.107Z,5.48
2023-04-21T03:36:14.306Z,5.59
2023-04-21T03:38:40.526Z,5.52
2023-04-21T03:41:06.730Z,5.50
2023-04-21T03:43:32.942Z,5.56
2023-04-21T03:45:59.229Z,5.54
2023-04-21T03:48:25.465Z,5.56
2023-04-21T03:50:51.668Z,5.60
2023-04-21T03:53:17.877Z,5.61
2023-04-21T03:55:44.092Z,5.62
2023-04-21T03:58:10.306Z,5.56
2023-04-21T04:00:36.511Z,5.67
2023-04-21T04:03:02.868Z,5.63
2023-04-21T04:05:29.230Z,5.61
2023-04-21T04:07:55.454Z,5.63
2023-04-21T04:10:21.645Z,5.83
2023-04-21T04:12:47.857Z,5.80
2023-04-21T04:15:14.062Z,5.76
2023-04-21T04:17:40.345Z,5.53
2023-04-21T04:20:07.179Z,5.53
2023-04-21T04:22:33.392Z,5.55
2023-04-21T04:24:59.896Z,5.66
2023-04-21T04:27:27.141Z,5.86
2023-04-21T04:29:53.357Z,5.82
2023-04-21T04:32:19.569Z,5.69
2023-04-21T04:34:45.793Z,5.61
2023-04-21T04:37:11.991Z,5.77
2023-04-21T04:39:38.232Z,5.87
2023-04-21T04:42:06.750Z,6.09
2023-04-21T04:44:32.953Z,6.35
2023-04-21T04:46:59.251Z,6.67
2023-04-21T04:49:25.535Z,6.84
2023-04-21T04:51:51.755Z,6.93
2023-04-21T04:54:18.187Z,7.14
2023-04-21T04:56:44.657Z,7.27
2023-04-21T04:59:10.860Z,7.70
2023-04-21T05:01:37.106Z,7.90
2023-04-21T05:04:03.802Z,8.11
2023-04-21T05:06:30.250Z,8.29
2023-04-21T05:08:56.473Z,8.27
2023-04-21T05:11:22.673Z,8.30
2023-04-21T05:13:48.879Z,8.38
2023-04-21T05:16:15.099Z,8.66
2023-04-21T05:18:41.334Z,8.90
2023-04-21T05:21:07.555Z,9.18
2023-04-21T05:23:33.789Z,9.71
2023-04-21T05:26:02.661Z,10.30
2023-04-21T05:28:30.329Z,10.86
2023-04-21T05:30:56.541Z,10.71
2023-04-21T05:33:22.791Z,9.94
2023-04-21T05:35:49.019Z,10.36
2023-04-21T05:38:15.226Z,10.37
2023-04-21T05:40:41.430Z,10.49
2023-04-21T05:43:07.633Z,10.25
2023-04-21T05:45:33.841Z,10.22
2023-04-21T05:48:00.082Z,11.08
2023-04-21T05:50:26.385Z,10.94
2023-04-21T05:52:52.583Z,11.43
2023-04-21T05:55:18.790Z,11.69
2023-04-21T05:57:45.093Z,11.57
2023-04-21T06:00:11.669Z,12.18
2023-04-21T06:02:38.069Z,11.88
2023-04-21T06:05:04.626Z,11.94
2023-04-21T06:07:30.967Z,12.29
2023-04-21T06:09:57.180Z,12.14
2023-04-21T06:12:23.388Z,12.54
2023-04-21T06:14:49.598Z,12.45
2023-04-21T06:17:16.312Z,12.97
2023-04-21T06:19:43.411Z,13.18
2023-04-21T06:22:09.689Z,13.34
2023-04-21T06:24:35.897Z,13.15
2023-04-21T06:27:02.102Z,13.22
2023-04-21T06:29:28.305Z,13.01
2023-04-21T06:31:54.583Z,12.98
2023-04-21T06:34:21.032Z,13.15
2023-04-21T06:36:47.339Z,13.27
2023-04-21T06:39:13.547Z,13.76
2023-04-21T06:41:39.758Z,12.98
2023-04-21T06:44:05.977Z,13.05
2023-04-21T06:46:32.206Z,13.36
2023-04-21T06:48:58.492Z,13.44
2023-04-21T06:51:24.838Z,13.41
2023-04-21T06:53:52.620Z,13.83
2023-04-21T06:56:20.014Z,13.61
2023-04-21T06:58:46.240Z,13.52
2023-04-21T07:01:13.982Z,13.58
2023-04-21T07:03:40.284Z,14.25
2023-04-21T07:06:10.498Z,14.14
2023-04-21T07:08:36.802Z,14.23
2023-04-21T07:11:03.019Z,14.68
2023-04-21T07:13:29.587Z,14.92
2023-04-21T07:15:55.924Z,15.12
2023-04-21T07:18:22.337Z,14.43
2023-04-21T07:21:00.578Z,14.32
2023-04-21T07:23:57.656Z,14.99
2023-04-21T07:32:10.292Z,15.51
2023-04-21T07:34:36.783Z,15.02
2023-04-21T07:37:03.943Z,15.71
2023-04-21T07:39:30.334Z,15.69
2023-04-21T07:42:00.351Z,15.46
2023-04-21T07:44:26.559Z,15.60
2023-04-21T07:46:52.854Z,14.92
2023-04-21T07:49:19.287Z,15.65
2023-04-21T07:52:11.557Z,15.37
2023-04-21T07:54:37.812Z,15.25
2023-04-21T07:57:04.094Z,15.11
2023-04-21T07:59:30.333Z,15.60
2023-04-21T08:01:57.448Z,15.74
2023-04-21T08:04:26.616Z,15.65
2023-04-21T08:06:56.083Z,15.94
2023-04-21T08:09:29.228Z,16.29
2023-04-21T08:11:56.723Z,16.58
2023-04-21T08:14:22.988Z,16.35
2023-04-21T08:16:53.493Z,15.92
2023-04-21T08:19:20.913Z,16.50
2023-04-21T08:21:47.321Z,17.04
2023-04-21T08:24:13.580Z,17.15
2023-04-21T08:26:51.067Z,16.75
2023-04-21T08:29:20.181Z,16.71
2023-04-21T08:31:49.600Z,17.24
2023-04-21T08:34:18.664Z,16.98
2023-04-21T08:36:46.758Z,17.35
2023-04-21T08:39:16.612Z,17.47
2023-04-21T08:41:56.076Z,17.23
2023-04-21T08:44:30.242Z,17.53
2023-04-21T08:52:52.470Z,17.52
2023-04-21T08:55:18.686Z,17.02
2023-04-21T09:16:19.703Z,18.56
2023-04-21T09:18:45.981Z,18.32
2023-04-21T09:21:13.010Z,18.06
2023-04-21T09:23:42.834Z,18.32
2023-04-21T09:26:09.298Z,18.38
2023-04-21T09:28:35.583Z,18.38
2023-04-21T09:34:00.711Z,19.00
2023-04-21T09:36:30.751Z,18.97
2023-04-21T09:39:20.702Z,18.74
2023-04-21T09:41:43.548Z,19.25
2023-04-21T09:44:09.770Z,19.36
2023-04-21T09:46:36.435Z,19.18
2023-04-21T09:49:02.843Z,18.68
2023-04-21T09:51:52.867Z,18.61
2023-04-21T09:54:28.314Z,18.87
2023-04-21T09:56:56.097Z,19.05
2023-04-21T09:59:25.067Z,19.34
2023-04-21T10:01:51.348Z,19.04
2023-04-21T10:04:18.169Z,19.23
2023-04-21T10:06:45.098Z,19.70
2023-04-21T10:09:11.303Z,19.57
2023-04-21T10:11:37.506Z,19.46
2023-04-21T10:14:03.847Z,19.42
2023-04-21T10:16:30.081Z,19.81
2023-04-21T10:18:56.348Z,19.40
2023-04-21T10:21:22.546Z,19.16
2023-04-21T10:23:48.831Z,19.76
2023-04-21T10:26:24.978Z,19.90
2023-04-21T10:29:09.074Z,19.58
2023-04-21T10:31:44.385Z,19.89
2023-04-21T10:34:10.569Z,20.47
2023-04-21T10:36:43.387Z,20.64
2023-04-21T10:39:09.599Z,20.55
2023-04-21T10:41:35.800Z,19.78
2023-04-21T10:44:11.026Z,20.09
2023-04-21T10:46:37.854Z,19.85
2023-04-21T10:49:04.676Z,19.83
2023-04-21T10:51:30.909Z,20.02
2023-04-21T10:53:57.544Z,20.26
2023-04-21T10:56:23.776Z,19.91
2023-04-21T10:58:49.997Z,19.69
2023-04-21T11:01:16.303Z,19.25
2023-04-21T11:03:42.752Z,20.14
2023-04-21T11:06:15.261Z,19.71
2023-04-21T11:08:57.143Z,19.94
2023-04-21T11:11:23.573Z,20.10
2023-04-21T11:13:49.769Z,19.91
2023-04-21T11:16:16.019Z,20.12
2023-04-21T11:18:42.921Z,20.41
2023-04-21T11:21:09.662Z,20.09
2023-04-21T11:23:35.894Z,19.74
2023-04-21T11:26:02.103Z,19.05
2023-04-21T11:28:28.319Z,19.98
2023-04-21T11:30:54.722Z,19.63
2023-04-21T11:33:21.108Z,20.25
2023-04-21T11:35:47.334Z,20.52
2023-04-21T11:38:13.549Z,19.28
2023-04-21T11:40:46.521Z,19.60
2023-04-21T11:43:12.731Z,19.80
2023-04-21T11:45:40.256Z,19.85
2023-04-21T11:48:15.782Z,19.46
2023-04-21T11:50:46.535Z,19.67
2023-04-21T11:53:14.054Z,19.79
2023-04-21T11:55:42.450Z,19.66
2023-04-21T11:58:08.646Z,19.72
2023-04-21T12:00:34.888Z,19.28
2023-04-21T12:03:01.242Z,19.77
2023-04-21T12:05:34.319Z,20.04
2023-04-21T12:08:00.545Z,20.11
2023-04-21T12:10:26.771Z,19.80
2023-04-21T12:12:52.972Z,19.65
2023-04-21T12:15:19.557Z,20.14
2023-04-21T12:17:46.148Z,19.86
2023-04-21T12:20:12.771Z,19.76
2023-04-21T12:22:38.996Z,19.54
2023-04-21T12:25:05.434Z,19.73
2023-04-21T12:27:31.768Z,20.18
2023-04-21T12:29:57.998Z,19.71
2023-04-21T12:32:24.220Z,20.08
2023-04-21T12:34:50.625Z,19.90
2023-04-21T12:37:17.843Z,19.94
2023-04-21T12:39:44.035Z,19.98
2023-04-21T12:42:10.234Z,19.58
2023-04-21T12:44:36.452Z,19.54
2023-04-21T12:47:02.672Z,19.47
2023-04-21T12:49:29.035Z,19.50
2023-04-21T12:51:55.393Z,19.41
2023-04-21T12:54:21.593Z,19.04
2023-04-21T12:56:47.826Z,19.23
2023-04-21T12:59:14.049Z,19.83
2023-04-21T13:01:40.683Z,19.38
2023-04-21T13:04:07.137Z,19.39
2023-04-21T13:06:33.832Z,19.40
2023-04-21T13:09:00.122Z,20.00
2023-04-21T13:11:26.316Z,19.94
2023-04-21T13:13:52.585Z,19.14
2023-04-21T13:16:18.808Z,19.87
2023-04-21T13:18:45.584Z,19.87
2023-04-21T13:21:11.787Z,19.85
2023-04-21T13:23:38.009Z,19.66
2023-04-21T13:26:04.372Z,19.65
2023-04-21T13:28:30.565Z,19.48
2023-04-21T13:30:57.032Z,19.36
2023-04-21T13:33:23.254Z,19.27
2023-04-21T13:35:49.462Z,19.17
2023-04-21T13:38:15.658Z,19.31
2023-04-21T13:40:41.893Z,19.10
2023-04-21T13:43:08.094Z,18.87
2023-04-21T13:45:34.370Z,19.04
2023-04-21T13:48:00.663Z,18.89
2023-04-21T13:50:26.954Z,18.87
2023-04-21T13:52:53.175Z,18.92
2023-04-21T13:55:19.938Z,18.89
2023-04-21T13:57:46.141Z,18.90
2023-04-21T14:00:12.533Z,18.96
2023-04-21T14:02:39.099Z,19.17
2023-04-21T14:05:05.660Z,18.87
2023-04-21T14:07:31.973Z,18.97
2023-04-21T14:09:58.198Z,19.04
2023-04-21T14:12:24.402Z,19.25
2023-04-21T14:14:50.605Z,18.96
2023-04-21T14:17:16.794Z,19.07
2023-04-21T14:19:43.047Z,18.95
2023-04-21T14:22:09.264Z,18.82
2023-04-21T14:24:35.537Z,18.88
2023-04-21T14:27:01.760Z,18.98
2023-04-21T14:29:28.026Z,19.01
2023-04-21T14:31:54.271Z,18.99
2023-04-21T14:34:20.504Z,18.75
2023-04-21T14:36:46.719Z,18.56
2023-04-21T14:39:12.969Z,18.46
2023-04-21T14:41:39.204Z,18.37
2023-04-21T14:44:07.114Z,18.42
2023-04-21T14:46:33.475Z,18.63
2023-04-21T14:48:59.726Z,18.51
2023-04-21T14:51:26.042Z,18.42
2023-04-21T14:53:52.395Z,18.36
2023-04-21T14:56:18.642Z,18.09
2023-04-21T14:58:44.874Z,18.07
2023-04-21T15:01:11.158Z,18.11
2023-04-21T15:03:37.744Z,17.94
2023-04-21T15:06:04.090Z,18.04
2023-04-21T15:08:30.316Z,17.99
2023-04-21T15:10:56.584Z,17.81
2023-04-21T15:13:22.950Z,17.83
2023-04-21T15:15:49.235Z,17.92
2023-04-21T15:18:15.482Z,17.78
2023-04-21T15:20:45.160Z,17.71
2023-04-21T15:23:12.228Z,17.49
2023-04-21T15:25:39.971Z,17.29
2023-04-21T15:28:06.271Z,17.22
2023-04-21T15:30:32.622Z,17.32
2023-04-21T15:32:58.895Z,17.39
2023-04-21T15:35:25.179Z,17.25
2023-04-21T15:37:51.404Z,17.40
2023-04-21T15:40:17.684Z,17.41
2023-04-21T15:42:44.065Z,17.29
2023-04-21T15:45:10.334Z,17.32
2023-04-21T15:47:36.601Z,17.17
2023-04-21T15:50:02.900Z,17.13
2023-04-21T15:52:29.113Z,17.05
2023-04-21T15:54:55.355Z,17.04
2023-04-21T15:57:21.586Z,17.04
2023-04-21T15:59:47.821Z,16.86
2023-04-21T16:02:14.102Z,16.88
2023-04-21T16:04:40.728Z,16.82
2023-04-21T16:07:07.499Z,16.58
2023-04-21T16:09:33.710Z,16.54
2023-04-21T16:11:59.908Z,16.47
2023-04-21T16:14:26.205Z,16.63
2023-04-21T16:16:52.461Z,16.54
2023-04-21T16:19:18.729Z,16.50
2023-04-21T16:21:44.935Z,16.34
2023-04-21T16:24:11.322Z,16.19
2023-04-21T16:26:37.724Z,16.22
2023-04-21T16:29:03.980Z,16.14
2023-04-21T16:31:30.260Z,16.13
2023-04-21T16:33:56.556Z,16.10
2023-04-21T16:36:22.893Z,16.00
2023-04-21T16:38:49.108Z,15.91
2023-04-21T16:41:15.361Z,15.80
2023-04-21T16:43:41.607Z,15.76
2023-04-21T16:46:07.883Z,15.56
2023-04-21T16:48:34.178Z,15.56
2023-04-21T16:51:00.402Z,15.42
2023-04-21T16:53:26.639Z,15.52
2023-04-21T16:55:52.849Z,15.20
2023-04-21T16:58:19.058Z,15.05
2023-04-21T17:00:45.309Z,15.12
2023-04-21T17:03:11.643Z,15.07
2023-04-21T17:05:39.935Z,15.24
2023-04-21T17:08:06.301Z,15.08
2023-04-21T17:10:32.506Z,14.75
2023-04-21T17:12:58.711Z,14.71
2023-04-21T17:15:24.925Z,14.59
2023-04-21T17:17:51.162Z,14.54
2023-04-21T17:20:17.393Z,14.58
2023-04-21T17:22:43.594Z,14.42
2023-04-21T17:25:09.990Z,14.37
2023-04-21T17:27:36.606Z,14.27
2023-04-21T17:30:06.173Z,13.82
2023-04-21T17:32:33.964Z,13.89
2023-04-21T17:35:00.391Z,13.85
2023-04-21T17:37:26.599Z,13.82
2023-04-21T17:39:52.817Z,13.70
2023-04-21T17:42:19.460Z,13.64
2023-04-21T17:44:45.670Z,13.46
2023-04-21T17:47:11.927Z,13.05
2023-04-21T17:49:38.191Z,12.71
2023-04-21T17:52:04.536Z,12.72
2023-04-21T17:54:30.748Z,12.20
2023-04-21T17:56:56.954Z,11.95
2023-04-21T17:59:23.183Z,12.26
2023-04-21T18:01:49.475Z,12.22
2023-04-21T18:04:15.929Z,12.15
2023-04-21T18:06:42.351Z,12.12
2023-04-21T18:09:08.885Z,11.88
2023-04-21T18:11:35.103Z,11.81
2023-04-21T18:14:01.302Z,11.77
2023-04-21T18:16:27.576Z,11.68
2023-04-21T18:18:53.829Z,11.71
2023-04-21T18:21:20.356Z,11.65
2023-04-21T18:23:46.568Z,11.48
2023-04-21T18:26:12.779Z,11.58
2023-04-21T18:28:39.028Z,11.53
2023-04-21T18:31:05.292Z,11.33
2023-04-21T18:33:31.505Z,11.28
2023-04-21T18:35:57.731Z,11.15
2023-04-21T18:38:23.935Z,10.94
2023-04-21T18:40:50.153Z,10.63
2023-04-21T18:43:16.369Z,10.43
2023-04-21T18:45:42.594Z,10.20
2023-04-21T18:48:08.883Z,9.94
2023-04-21T18:50:37.390Z,9.99
2023-04-21T18:53:04.155Z,10.16
2023-04-21T18:55:30.365Z,9.96
2023-04-21T18:57:56.575Z,9.99
2023-04-21T19:00:22.777Z,9.89
2023-04-21T19:02:49.234Z,9.74
2023-04-21T19:05:15.521Z,10.19
2023-04-21T19:07:41.736Z,10.10
2023-04-21T19:10:08.369Z,10.09
2023-04-21T19:12:34.564Z,10.06
2023-04-21T19:15:00.879Z,9.96
2023-04-21T19:17:28.499Z,9.79
2023-04-21T19:19:54.740Z,9.65
2023-04-21T19:22:20.941Z,9.51
2023-04-21T19:24:47.213Z,9.32
2023-04-21T19:27:14.235Z,9.18
2023-04-21T19:29:50.884Z,9.08
2023-04-21T19:32:17.150Z,9.19
2023-04-21T19:34:43.438Z,8.93
2023-04-21T19:37:09.665Z,8.84
2023-04-21T19:39:35.912Z,8.84
2023-04-21T19:42:02.123Z,8.90
2023-04-21T19:44:28.477Z,8.89
2023-04-21T19:46:55.171Z,8.89
2023-04-21T19:49:21.537Z,8.83
2023-04-21T19:51:47.757Z,8.62
2023-04-21T19:54:13.992Z,8.63
2023-04-21T19:56:40.226Z,8.92
2023-04-21T19:59:06.744Z,8.94
2023-04-21T20:01:33.390Z,8.63
2023-04-21T20:03:59.934Z,8.26
2023-04-21T20:06:26.520Z,8.04
2023-04-21T20:08:52.752Z,7.94
2023-04-21T20:11:18.968Z,7.82
2023-04-21T20:13:45.185Z,7.99
2023-04-21T20:16:11.505Z,8.11
2023-04-21T20:18:37.772Z,8.02
2023-04-21T20:21:04.100Z,8.04
2023-04-21T20:23:30.384Z,8.06
2023-04-21T20:25:56.599Z,8.42
2023-04-21T20:28:22.821Z,8.24
2023-04-21T20:30:49.037Z,8.54
2023-04-21T20:33:15.249Z,8.53
2023-04-21T20:35:41.468Z,8.18
2023-04-21T20:38:07.686Z,8.11
2023-04-21T20:40:36.145Z,7.99
2023-04-21T20:43:02.960Z,7.88
2023-04-21T20:45:29.351Z,7.69
2023-04-21T20:47:55.653Z,7.66
2023-04-21T20:50:21.966Z,7.67
2023-04-21T20:52:48.175Z,7.70
2023-04-21T20:55:14.398Z,7.58
2023-04-21T20:57:40.605Z,7.91
2023-04-21T21:00:07.107Z,7.80
2023-04-21T21:02:33.381Z,8.07
2023-04-21T21:04:59.680Z,8.14
2023-04-21T21:07:25.874Z,7.96
2023-04-21T21:09:52.448Z,7.87
2023-04-21T21:12:18.665Z,7.69
2023-04-21T21:14:44.871Z,7.63
2023-04-21T21:17:11.180Z,7.56
2023-04-21T21:19:37.551Z,7.52
2023-04-21T21:22:03.883Z,7.45
2023-04-21T21:24:30.101Z,7.56
2023-04-21T21:26:56.304Z,7.68
2023-04-21T21:29:22.530Z,7.52
2023-04-21T21:31:48.852Z,7.56
2023-04-21T21:34:15.097Z,7.62
2023-04-21T21:36:41.329Z,7.67
2023-04-21T21:39:10.426Z,7.60
2023-04-21T21:41:37.458Z,7.52
2023-04-21T21:44:03.673Z,7.53
2023-04-21T21:46:29.928Z,7.53
2023-04-21T21:48:56.141Z,7.63
2023-04-21T21:51:22.363Z,7.52
2023-04-21T21:53:48.558Z,7.46
2023-04-21T21:56:14.765Z,7.36
2023-04-21T21:58:41.017Z,7.35
2023-04-21T22:01:07.246Z,7.58
2023-04-21T22:03:33.627Z,7.39
2023-04-21T22:05:59.960Z,7.19
2023-04-21T22:08:26.185Z,7.17
2023-04-21T22:10:52.452Z,6.76
2023-04-21T22:13:18.680Z,6.92
2023-04-21T22:15:44.952Z,7.01
2023-04-21T22:18:11.214Z,7.04
2023-04-21T22:20:37.434Z,7.01
2023-04-21T22:23:03.642Z,7.28
2023-04-21T22:25:29.868Z,7.21
2023-04-21T22:27:56.350Z,7.04
2023-04-21T22:30:22.700Z,7.03
2023-04-21T22:32:48.989Z,6.92
2023-04-21T22:35:15.225Z,6.97
2023-04-21T22:37:41.555Z,6.95
2023-04-21T22:40:08.082Z,7.02
2023-04-21T22:42:34.277Z,7.08
2023-04-21T22:45:00.476Z,6.81
2023-04-21T22:47:26.974Z,6.87
2023-04-21T22:49:53.285Z,6.77
2023-04-21T22:52:19.485Z,6.65
2023-04-21T22:54:45.686Z,6.99
2023-04-21T22:57:11.898Z,7.13
2023-04-21T22:59:38.471Z,7.29
2023-04-21T23:02:04.982Z,7.29
2023-04-21T23:04:31.235Z,6.94
2023-04-21T23:06:57.456Z,7.14
2023-04-21T23:09:23.667Z,7.14
2023-04-21T23:11:49.871Z,7.38
2023-04-21T23:14:16.072Z,7.32
2023-04-21T23:16:42.366Z,7.48
2023-04-21T23:19:08.610Z,7.67
2023-04-21T23:21:34.943Z,7.63
2023-04-21T23:24:01.175Z,7.71
2023-04-21T23:26:27.395Z,7.64
2023-04-21T23:28:53.603Z,7.29
2023-04-21T23:31:19.853Z,7.14
2023-04-21T23:33:46.067Z,7.22
2023-04-21T23:36:12.277Z,7.15
2023-04-21T23:38:38.476Z,7.20
2023-04-21T23:41:04.712Z,7.11
2023-04-21T23:43:30.952Z,6.98
2023-04-21T23:45:57.211Z,7.00
2023-04-21T23:48:23.423Z,6.90
2023-04-21T23:50:49.766Z,7.13
2023-04-21T23:53:16.018Z,7.25
2023-04-21T23:55:42.269Z,7.24
2023-04-21T23:58:08.493Z,7.10
